sensor_id;sensor_type;location;lat;lon;timestamp;temperature;humidity
9373;DHT22;10838;52.350;9.790;2023-06-19T00:00:23;23.50;87.00
9373;DHT22;10838;52.350;9.790;2023-06-19T00:02:50;23.50;87.00
9373;DHT22;10838;52.350;9.790;2023-06-19T00:05:16;23.40;87.10
9373;DHT22;10838;52.350;9.790;2023-06-19T00:07:43;23.40;87.20
9373;DHT22;10838;52.350;9.790;2023-06-19T00:10:10;23.30;87.30
9373;DHT22;10838;52.350;9.790;2023-06-19T00:12:37;23.20;87.30
9373;DHT22;10838;52.350;9.790;2023-06-19T00:15:05;23.20;87.40
9373;DHT22;10838;52.350;9.790;2023-06-19T00:17:34;23.20;87.40
9373;DHT22;10838;52.350;9.790;2023-06-19T00:20:03;23.20;87.50
9373;DHT22;10838;52.350;9.790;2023-06-19T00:22:30;23.10;87.50
9373;DHT22;10838;52.350;9.790;2023-06-19T00:24:57;23.00;87.60
9373;DHT22;10838;52.350;9.790;2023-06-19T00:27:24;23.00;87.60
9373;DHT22;10838;52.350;9.790;2023-06-19T00:29:53;23.00;87.70
9373;DHT22;10838;52.350;9.790;2023-06-19T00:32:19;23.00;87.60
9373;DHT22;10838;52.350;9.790;2023-06-19T00:34:46;23.00;87.50
9373;DHT22;10838;52.350;9.790;2023-06-19T00:37:13;22.90;87.30
9373;DHT22;10838;52.350;9.790;2023-06-19T00:39:40;22.90;87.30
9373;DHT22;10838;52.350;9.790;2023-06-19T00:42:07;22.90;87.30
9373;DHT22;10838;52.350;9.790;2023-06-19T00:44:33;22.90;87.30
9373;DHT22;10838;52.350;9.790;2023-06-19T00:47:02;22.90;87.30
9373;DHT22;10838;52.350;9.790;2023-06-19T00:49:30;22.90;87.40
9373;DHT22;10838;52.350;9.790;2023-06-19T00:51:57;22.90;87.50
9373;DHT22;10838;52.350;9.790;2023-06-19T00:54:24;22.80;87.50
9373;DHT22;10838;52.350;9.790;2023-06-19T00:56:51;22.80;87.40
9373;DHT22;10838;52.350;9.790;2023-06-19T00:59:19;22.80;87.30
9373;DHT22;10838;52.350;9.790;2023-06-19T01:01:46;22.80;87.30
9373;DHT22;10838;52.350;9.790;2023-06-19T01:04:14;22.80;87.30
9373;DHT22;10838;52.350;9.790;2023-06-19T01:06:46;22.80;87.30
9373;DHT22;10838;52.350;9.790;2023-06-19T01:09:18;22.70;87.20
9373;DHT22;10838;52.350;9.790;2023-06-19T01:11:50;22.80;87.20
9373;DHT22;10838;52.350;9.790;2023-06-19T01:14:20;22.70;87.20
9373;DHT22;10838;52.350;9.790;2023-06-19T01:16:48;22.70;87.20
9373;DHT22;10838;52.350;9.790;2023-06-19T01:19:19;22.70;87.20
9373;DHT22;10838;52.350;9.790;2023-06-19T01:21:46;22.70;87.30
9373;DHT22;10838;52.350;9.790;2023-06-19T01:24:14;22.70;87.40
9373;DHT22;10838;52.350;9.790;2023-06-19T01:26:41;22.70;87.40
9373;DHT22;10838;52.350;9.790;2023-06-19T01:29:11;22.70;87.50
9373;DHT22;10838;52.350;9.790;2023-06-19T01:31:45;22.70;87.60
9373;DHT22;10838;52.350;9.790;2023-06-19T01:34:14;22.70;87.70
9373;DHT22;10838;52.350;9.790;2023-06-19T01:36:42;22.60;87.80
9373;DHT22;10838;52.350;9.790;2023-06-19T01:39:09;22.60;87.90
9373;DHT22;10838;52.350;9.790;2023-06-19T01:41:38;22.60;87.90
9373;DHT22;10838;52.350;9.790;2023-06-19T01:44:06;22.60;88.00
9373;DHT22;10838;52.350;9.790;2023-06-19T01:46:33;22.60;88.10
9373;DHT22;10838;52.350;9.790;2023-06-19T01:49:00;22.60;88.10
9373;DHT22;10838;52.350;9.790;2023-06-19T01:51:27;22.60;88.20
9373;DHT22;10838;52.350;9.790;2023-06-19T01:53:53;22.50;88.20
9373;DHT22;10838;52.350;9.790;2023-06-19T01:56:20;22.50;88.20
9373;DHT22;10838;52.350;9.790;2023-06-19T01:58:50;22.50;88.30
9373;DHT22;10838;52.350;9.790;2023-06-19T02:01:17;22.50;88.40
9373;DHT22;10838;52.350;9.790;2023-06-19T02:03:44;22.50;88.40
9373;DHT22;10838;52.350;9.790;2023-06-19T02:06:10;22.50;88.50
9373;DHT22;10838;52.350;9.790;2023-06-19T02:08:37;22.40;88.50
9373;DHT22;10838;52.350;9.790;2023-06-19T02:11:03;22.40;88.50
9373;DHT22;10838;52.350;9.790;2023-06-19T02:13:30;22.40;88.60
9373;DHT22;10838;52.350;9.790;2023-06-19T02:15:58;22.30;88.60
9373;DHT22;10838;52.350;9.790;2023-06-19T02:18:24;22.30;88.70
9373;DHT22;10838;52.350;9.790;2023-06-19T02:20:51;22.30;88.70
9373;DHT22;10838;52.350;9.790;2023-06-19T02:23:18;22.20;88.70
9373;DHT22;10838;52.350;9.790;2023-06-19T02:25:44;22.20;88.60
9373;DHT22;10838;52.350;9.790;2023-06-19T02:28:11;22.20;88.60
9373;DHT22;10838;52.350;9.790;2023-06-19T02:30:37;22.10;88.60
9373;DHT22;10838;52.350;9.790;2023-06-19T02:33:05;22.10;88.50
9373;DHT22;10838;52.350;9.790;2023-06-19T02:35:32;22.10;88.40
9373;DHT22;10838;52.350;9.790;2023-06-19T02:37:59;22.10;88.30
9373;DHT22;10838;52.350;9.790;2023-06-19T02:40:25;22.10;88.30
9373;DHT22;10838;52.350;9.790;2023-06-19T02:42:52;22.10;88.40
9373;DHT22;10838;52.350;9.790;2023-06-19T02:45:18;22.10;88.40
9373;DHT22;10838;52.350;9.790;2023-06-19T02:47:45;22.00;88.40
9373;DHT22;10838;52.350;9.790;2023-06-19T02:50:13;22.00;88.40
9373;DHT22;10838;52.350;9.790;2023-06-19T02:52:39;22.00;88.40
9373;DHT22;10838;52.350;9.790;2023-06-19T02:55:07;22.00;88.30
9373;DHT22;10838;52.350;9.790;2023-06-19T02:57:33;22.10;88.20
9373;DHT22;10838;52.350;9.790;2023-06-19T03:00:00;22.10;88.10
9373;DHT22;10838;52.350;9.790;2023-06-19T03:02:26;22.00;88.10
9373;DHT22;10838;52.350;9.790;2023-06-19T03:04:53;22.00;88.00
9373;DHT22;10838;52.350;9.790;2023-06-19T03:07:21;22.00;88.00
9373;DHT22;10838;52.350;9.790;2023-06-19T03:09:47;22.00;88.00
9373;DHT22;10838;52.350;9.790;2023-06-19T03:12:14;22.00;88.00
9373;DHT22;10838;52.350;9.790;2023-06-19T03:14:40;22.00;88.00
9373;DHT22;10838;52.350;9.790;2023-06-19T03:17:07;22.00;88.00
9373;DHT22;10838;52.350;9.790;2023-06-19T03:19:34;22.00;88.00
9373;DHT22;10838;52.350;9.790;2023-06-19T03:22:00;22.00;88.00
9373;DHT22;10838;52.350;9.790;2023-06-19T03:24:28;22.00;88.20
9373;DHT22;10838;52.350;9.790;2023-06-19T03:26:55;22.00;88.30
9373;DHT22;10838;52.350;9.790;2023-06-19T03:29:21;22.00;88.30
9373;DHT22;10838;52.350;9.790;2023-06-19T03:31:48;22.00;88.40
9373;DHT22;10838;52.350;9.790;2023-06-19T03:34:15;21.90;88.30
9373;DHT22;10838;52.350;9.790;2023-06-19T03:36:42;21.90;88.30
9373;DHT22;10838;52.350;9.790;2023-06-19T03:39:08;21.90;88.40
9373;DHT22;10838;52.350;9.790;2023-06-19T03:41:36;21.90;88.40
9373;DHT22;10838;52.350;9.790;2023-06-19T03:44:03;21.90;88.50
9373;DHT22;10838;52.350;9.790;2023-06-19T03:46:30;21.90;88.60
9373;DHT22;10838;52.350;9.790;2023-06-19T03:48:56;21.90;88.60
9373;DHT22;10838;52.350;9.790;2023-06-19T03:51:23;21.90;88.70
9373;DHT22;10838;52.350;9.790;2023-06-19T03:53:50;21.80;88.70
9373;DHT22;10838;52.350;9.790;2023-06-19T03:56:16;21.80;88.70
9373;DHT22;10838;52.350;9.790;2023-06-19T03:58:44;21.80;88.70
9373;DHT22;10838;52.350;9.790;2023-06-19T04:01:11;21.80;88.70
9373;DHT22;10838;52.350;9.790;2023-06-19T04:03:37;21.80;88.50
9373;DHT22;10838;52.350;9.790;2023-06-19T04:06:04;21.80;88.40
9373;DHT22;10838;52.350;9.790;2023-06-19T04:08:30;21.80;88.40
9373;DHT22;10838;52.350;9.790;2023-06-19T04:10:57;21.80;88.40
9373;DHT22;10838;52.350;9.790;2023-06-19T04:13:23;21.80;88.30
9373;DHT22;10838;52.350;9.790;2023-06-19T04:15:52;21.80;88.40
9373;DHT22;10838;52.350;9.790;2023-06-19T04:18:19;21.80;88.30
9373;DHT22;10838;52.350;9.790;2023-06-19T04:20:45;21.80;88.30
9373;DHT22;10838;52.350;9.790;2023-06-19T04:23:12;21.80;88.30
9373;DHT22;10838;52.350;9.790;2023-06-19T04:25:39;21.80;88.40
9373;DHT22;10838;52.350;9.790;2023-06-19T04:28:05;21.80;88.50
9373;DHT22;10838;52.350;9.790;2023-06-19T04:30:32;21.80;88.50
9373;DHT22;10838;52.350;9.790;2023-06-19T04:33:00;21.80;88.60
9373;DHT22;10838;52.350;9.790;2023-06-19T04:35:26;21.80;88.60
9373;DHT22;10838;52.350;9.790;2023-06-19T04:37:53;21.80;88.60
9373;DHT22;10838;52.350;9.790;2023-06-19T04:40:20;21.80;88.60
9373;DHT22;10838;52.350;9.790;2023-06-19T04:42:46;21.80;88.60
9373;DHT22;10838;52.350;9.790;2023-06-19T04:45:13;21.80;88.60
9373;DHT22;10838;52.350;9.790;2023-06-19T04:47:39;21.70;88.70
9373;DHT22;10838;52.350;9.790;2023-06-19T04:50:08;21.70;88.80
9373;DHT22;10838;52.350;9.790;2023-06-19T04:52:35;21.70;88.80
9373;DHT22;10838;52.350;9.790;2023-06-19T04:55:04;21.70;88.90
9373;DHT22;10838;52.350;9.790;2023-06-19T04:57:31;21.70;89.00
9373;DHT22;10838;52.350;9.790;2023-06-19T04:59:57;21.70;89.10
9373;DHT22;10838;52.350;9.790;2023-06-19T05:02:24;21.70;89.40
9373;DHT22;10838;52.350;9.790;2023-06-19T05:04:50;21.70;89.50
9373;DHT22;10838;52.350;9.790;2023-06-19T05:07:18;21.70;89.70
9373;DHT22;10838;52.350;9.790;2023-06-19T05:09:45;21.70;90.00
9373;DHT22;10838;52.350;9.790;2023-06-19T05:12:11;21.60;90.00
9373;DHT22;10838;52.350;9.790;2023-06-19T05:14:38;21.60;90.10
9373;DHT22;10838;52.350;9.790;2023-06-19T05:17:05;21.60;90.20
9373;DHT22;10838;52.350;9.790;2023-06-19T05:19:32;21.50;90.30
9373;DHT22;10838;52.350;9.790;2023-06-19T05:21:58;21.40;90.30
9373;DHT22;10838;52.350;9.790;2023-06-19T05:24:26;21.40;90.40
9373;DHT22;10838;52.350;9.790;2023-06-19T05:26:53;21.40;90.50
9373;DHT22;10838;52.350;9.790;2023-06-19T05:29:19;21.40;90.50
9373;DHT22;10838;52.350;9.790;2023-06-19T05:31:46;21.30;90.60
9373;DHT22;10838;52.350;9.790;2023-06-19T05:34:13;21.30;90.60
9373;DHT22;10838;52.350;9.790;2023-06-19T05:36:40;21.30;90.70
9373;DHT22;10838;52.350;9.790;2023-06-19T05:39:06;21.30;90.70
9373;DHT22;10838;52.350;9.790;2023-06-19T05:41:34;21.30;90.70
9373;DHT22;10838;52.350;9.790;2023-06-19T05:44:01;21.30;90.70
9373;DHT22;10838;52.350;9.790;2023-06-19T05:46:27;21.30;90.70
9373;DHT22;10838;52.350;9.790;2023-06-19T05:48:54;21.30;90.70
9373;DHT22;10838;52.350;9.790;2023-06-19T05:51:21;21.30;90.70
9373;DHT22;10838;52.350;9.790;2023-06-19T05:53:47;21.40;90.80
9373;DHT22;10838;52.350;9.790;2023-06-19T05:56:15;21.40;90.90
9373;DHT22;10838;52.350;9.790;2023-06-19T05:58:43;21.40;90.90
9373;DHT22;10838;52.350;9.790;2023-06-19T06:01:10;21.40;90.90
9373;DHT22;10838;52.350;9.790;2023-06-19T06:03:37;21.40;90.80
9373;DHT22;10838;52.350;9.790;2023-06-19T06:06:04;21.40;90.80
9373;DHT22;10838;52.350;9.790;2023-06-19T06:08:32;21.40;90.80
9373;DHT22;10838;52.350;9.790;2023-06-19T06:10:58;21.50;90.80
9373;DHT22;10838;52.350;9.790;2023-06-19T06:13:25;21.50;90.90
9373;DHT22;10838;52.350;9.790;2023-06-19T06:15:53;21.50;90.90
9373;DHT22;10838;52.350;9.790;2023-06-19T06:18:19;21.50;90.90
9373;DHT22;10838;52.350;9.790;2023-06-19T06:20:46;21.60;90.90
9373;DHT22;10838;52.350;9.790;2023-06-19T06:23:12;21.60;90.90
9373;DHT22;10838;52.350;9.790;2023-06-19T06:25:39;21.60;91.00
9373;DHT22;10838;52.350;9.790;2023-06-19T06:28:06;21.60;91.00
9373;DHT22;10838;52.350;9.790;2023-06-19T06:30:32;21.60;91.00
9373;DHT22;10838;52.350;9.790;2023-06-19T06:33:00;21.70;90.90
9373;DHT22;10838;52.350;9.790;2023-06-19T06:35:27;21.70;90.90
9373;DHT22;10838;52.350;9.790;2023-06-19T06:37:54;21.70;90.90
9373;DHT22;10838;52.350;9.790;2023-06-19T06:40:20;21.70;91.00
9373;DHT22;10838;52.350;9.790;2023-06-19T06:42:47;21.70;91.00
9373;DHT22;10838;52.350;9.790;2023-06-19T06:45:14;21.70;91.00
9373;DHT22;10838;52.350;9.790;2023-06-19T06:47:41;21.70;91.10
9373;DHT22;10838;52.350;9.790;2023-06-19T06:50:09;21.70;91.10
9373;DHT22;10838;52.350;9.790;2023-06-19T06:52:36;21.80;91.10
9373;DHT22;10838;52.350;9.790;2023-06-19T06:55:04;21.80;91.00
9373;DHT22;10838;52.350;9.790;2023-06-19T06:57:31;21.80;91.00
9373;DHT22;10838;52.350;9.790;2023-06-19T06:59:57;21.80;90.90
9373;DHT22;10838;52.350;9.790;2023-06-19T07:02:24;21.90;90.90
9373;DHT22;10838;52.350;9.790;2023-06-19T07:04:50;21.90;90.90
9373;DHT22;10838;52.350;9.790;2023-06-19T07:07:19;21.90;90.80
9373;DHT22;10838;52.350;9.790;2023-06-19T07:09:46;21.90;90.90
9373;DHT22;10838;52.350;9.790;2023-06-19T07:12:12;22.00;90.80
9373;DHT22;10838;52.350;9.790;2023-06-19T07:14:39;22.10;90.80
9373;DHT22;10838;52.350;9.790;2023-06-19T07:17:06;22.20;90.70
9373;DHT22;10838;52.350;9.790;2023-06-19T07:19:32;22.40;90.70
9373;DHT22;10838;52.350;9.790;2023-06-19T07:21:59;22.60;90.60
9373;DHT22;10838;52.350;9.790;2023-06-19T07:24:27;22.80;90.60
9373;DHT22;10838;52.350;9.790;2023-06-19T07:26:54;22.90;90.50
9373;DHT22;10838;52.350;9.790;2023-06-19T07:29:21;23.00;90.30
9373;DHT22;10838;52.350;9.790;2023-06-19T07:31:48;23.10;90.20
9373;DHT22;10838;52.350;9.790;2023-06-19T07:34:14;23.20;90.20
9373;DHT22;10838;52.350;9.790;2023-06-19T07:36:41;23.30;90.20
9373;DHT22;10838;52.350;9.790;2023-06-19T07:39:08;23.40;90.10
9373;DHT22;10838;52.350;9.790;2023-06-19T07:41:36;23.40;90.00
9373;DHT22;10838;52.350;9.790;2023-06-19T07:44:03;23.60;90.00
9373;DHT22;10838;52.350;9.790;2023-06-19T07:46:30;23.80;90.00
9373;DHT22;10838;52.350;9.790;2023-06-19T07:48:57;24.10;90.00
9373;DHT22;10838;52.350;9.790;2023-06-19T07:51:23;24.30;89.80
9373;DHT22;10838;52.350;9.790;2023-06-19T07:53:50;24.60;89.60
9373;DHT22;10838;52.350;9.790;2023-06-19T07:56:16;24.80;89.40
9373;DHT22;10838;52.350;9.790;2023-06-19T07:58:44;25.10;89.40
9373;DHT22;10838;52.350;9.790;2023-06-19T08:01:12;25.30;89.30
9373;DHT22;10838;52.350;9.790;2023-06-19T08:03:39;25.50;89.30
9373;DHT22;10838;52.350;9.790;2023-06-19T08:06:05;25.70;89.10
9373;DHT22;10838;52.350;9.790;2023-06-19T08:08:32;26.00;89.00
9373;DHT22;10838;52.350;9.790;2023-06-19T08:10:58;26.20;89.20
9373;DHT22;10838;52.350;9.790;2023-06-19T08:13:25;26.50;88.70
9373;DHT22;10838;52.350;9.790;2023-06-19T08:15:53;26.70;88.80
9373;DHT22;10838;52.350;9.790;2023-06-19T08:18:19;26.90;88.70
9373;DHT22;10838;52.350;9.790;2023-06-19T08:20:46;27.10;88.50
9373;DHT22;10838;52.350;9.790;2023-06-19T08:23:12;27.30;88.40
9373;DHT22;10838;52.350;9.790;2023-06-19T08:25:39;27.50;88.50
9373;DHT22;10838;52.350;9.790;2023-06-19T08:28:06;27.70;88.40
9373;DHT22;10838;52.350;9.790;2023-06-19T08:30:33;28.00;88.40
9373;DHT22;10838;52.350;9.790;2023-06-19T08:33:01;28.20;88.50
9373;DHT22;10838;52.350;9.790;2023-06-19T08:35:28;28.40;88.40
9373;DHT22;10838;52.350;9.790;2023-06-19T08:37:55;28.50;88.30
9373;DHT22;10838;52.350;9.790;2023-06-19T08:40:21;28.70;88.10
9373;DHT22;10838;52.350;9.790;2023-06-19T08:42:48;29.00;88.10
9373;DHT22;10838;52.350;9.790;2023-06-19T08:45:15;29.10;88.00
9373;DHT22;10838;52.350;9.790;2023-06-19T08:47:44;29.30;87.80
9373;DHT22;10838;52.350;9.790;2023-06-19T08:50:11;29.50;87.80
9373;DHT22;10838;52.350;9.790;2023-06-19T08:52:38;29.70;87.70
9373;DHT22;10838;52.350;9.790;2023-06-19T08:55:06;29.80;87.70
9373;DHT22;10838;52.350;9.790;2023-06-19T08:57:34;30.00;87.70
9373;DHT22;10838;52.350;9.790;2023-06-19T09:00:00;30.10;87.60
9373;DHT22;10838;52.350;9.790;2023-06-19T09:02:37;30.30;87.50
9373;DHT22;10838;52.350;9.790;2023-06-19T09:05:14;30.40;87.20
9373;DHT22;10838;52.350;9.790;2023-06-19T09:07:41;30.50;87.30
9373;DHT22;10838;52.350;9.790;2023-06-19T09:10:13;30.70;87.30
9373;DHT22;10838;52.350;9.790;2023-06-19T09:12:41;30.80;87.20
9373;DHT22;10838;52.350;9.790;2023-06-19T09:15:11;30.90;87.00
9373;DHT22;10838;52.350;9.790;2023-06-19T09:17:38;31.00;86.90
9373;DHT22;10838;52.350;9.790;2023-06-19T09:20:06;31.00;86.90
9373;DHT22;10838;52.350;9.790;2023-06-19T09:22:35;30.90;87.00
9373;DHT22;10838;52.350;9.790;2023-06-19T09:25:02;30.90;87.00
9373;DHT22;10838;52.350;9.790;2023-06-19T09:27:32;30.90;87.10
9373;DHT22;10838;52.350;9.790;2023-06-19T09:30:00;30.90;87.20
9373;DHT22;10838;52.350;9.790;2023-06-19T09:32:28;30.90;87.10
9373;DHT22;10838;52.350;9.790;2023-06-19T09:34:56;31.00;87.00
9373;DHT22;10838;52.350;9.790;2023-06-19T09:37:25;31.00;86.90
9373;DHT22;10838;52.350;9.790;2023-06-19T09:39:54;31.00;86.70
9373;DHT22;10838;52.350;9.790;2023-06-19T09:42:26;30.90;86.80
9373;DHT22;10838;52.350;9.790;2023-06-19T09:44:56;31.00;86.90
9373;DHT22;10838;52.350;9.790;2023-06-19T09:47:25;31.10;86.90
9373;DHT22;10838;52.350;9.790;2023-06-19T09:49:55;31.20;86.60
9373;DHT22;10838;52.350;9.790;2023-06-19T09:52:23;31.30;86.50
9373;DHT22;10838;52.350;9.790;2023-06-19T09:54:51;31.30;86.40
9373;DHT22;10838;52.350;9.790;2023-06-19T09:57:19;31.20;86.50
9373;DHT22;10838;52.350;9.790;2023-06-19T09:59:47;31.10;86.60
9373;DHT22;10838;52.350;9.790;2023-06-19T10:02:15;31.10;86.70
9373;DHT22;10838;52.350;9.790;2023-06-19T10:04:44;31.00;86.90
9373;DHT22;10838;52.350;9.790;2023-06-19T10:07:18;30.90;86.90
9373;DHT22;10838;52.350;9.790;2023-06-19T10:09:58;30.80;86.90
9373;DHT22;10838;52.350;9.790;2023-06-19T10:12:37;30.80;87.00
9373;DHT22;10838;52.350;9.790;2023-06-19T10:15:09;30.70;86.90
9373;DHT22;10838;52.350;9.790;2023-06-19T10:17:36;30.60;86.80
9373;DHT22;10838;52.350;9.790;2023-06-19T10:20:03;30.50;86.90
9373;DHT22;10838;52.350;9.790;2023-06-19T10:22:36;30.40;86.80
9373;DHT22;10838;52.350;9.790;2023-06-19T10:25:04;30.40;86.90
9373;DHT22;10838;52.350;9.790;2023-06-19T10:27:34;30.30;87.10
9373;DHT22;10838;52.350;9.790;2023-06-19T10:30:16;30.30;87.20
9373;DHT22;10838;52.350;9.790;2023-06-19T10:32:43;30.30;87.30
9373;DHT22;10838;52.350;9.790;2023-06-19T10:35:11;30.30;87.30
9373;DHT22;10838;52.350;9.790;2023-06-19T10:37:37;30.40;87.30
9373;DHT22;10838;52.350;9.790;2023-06-19T10:40:06;30.40;87.40
9373;DHT22;10838;52.350;9.790;2023-06-19T10:42:36;30.40;87.30
9373;DHT22;10838;52.350;9.790;2023-06-19T10:45:03;30.50;87.40
9373;DHT22;10838;52.350;9.790;2023-06-19T10:47:32;30.50;87.40
9373;DHT22;10838;52.350;9.790;2023-06-19T10:49:59;30.60;87.20
9373;DHT22;10838;52.350;9.790;2023-06-19T10:52:28;30.60;87.30
9373;DHT22;10838;52.350;9.790;2023-06-19T10:54:55;30.60;87.20
9373;DHT22;10838;52.350;9.790;2023-06-19T10:57:27;30.70;87.40
9373;DHT22;10838;52.350;9.790;2023-06-19T10:59:54;30.80;87.20
9373;DHT22;10838;52.350;9.790;2023-06-19T11:02:21;30.80;87.30
9373;DHT22;10838;52.350;9.790;2023-06-19T11:04:52;30.90;87.40
9373;DHT22;10838;52.350;9.790;2023-06-19T11:07:18;31.00;87.40
9373;DHT22;10838;52.350;9.790;2023-06-19T11:09:45;31.10;87.20
9373;DHT22;10838;52.350;9.790;2023-06-19T11:12:18;31.10;87.20
9373;DHT22;10838;52.350;9.790;2023-06-19T11:14:44;31.20;87.20
9373;DHT22;10838;52.350;9.790;2023-06-19T11:17:11;31.20;87.10
9373;DHT22;10838;52.350;9.790;2023-06-19T11:19:38;31.20;87.00
9373;DHT22;10838;52.350;9.790;2023-06-19T11:22:08;31.20;87.00
9373;DHT22;10838;52.350;9.790;2023-06-19T11:24:35;31.20;87.20
9373;DHT22;10838;52.350;9.790;2023-06-19T11:27:02;31.20;87.00
9373;DHT22;10838;52.350;9.790;2023-06-19T11:29:31;31.20;87.00
9373;DHT22;10838;52.350;9.790;2023-06-19T11:32:05;31.30;86.90
9373;DHT22;10838;52.350;9.790;2023-06-19T11:34:33;31.30;86.80
9373;DHT22;10838;52.350;9.790;2023-06-19T11:37:02;31.30;86.80
9373;DHT22;10838;52.350;9.790;2023-06-19T11:39:32;31.40;86.80
9373;DHT22;10838;52.350;9.790;2023-06-19T11:41:59;31.40;86.90
9373;DHT22;10838;52.350;9.790;2023-06-19T11:44:26;31.40;86.90
9373;DHT22;10838;52.350;9.790;2023-06-19T11:46:56;31.50;86.70
9373;DHT22;10838;52.350;9.790;2023-06-19T11:49:23;31.60;86.70
9373;DHT22;10838;52.350;9.790;2023-06-19T11:51:50;31.60;86.30
9373;DHT22;10838;52.350;9.790;2023-06-19T11:54:17;31.60;86.30
9373;DHT22;10838;52.350;9.790;2023-06-19T11:56:46;31.70;86.40
9373;DHT22;10838;52.350;9.790;2023-06-19T11:59:13;31.80;86.40
9373;DHT22;10838;52.350;9.790;2023-06-19T12:01:40;31.80;86.20
9373;DHT22;10838;52.350;9.790;2023-06-19T12:04:07;31.80;86.20
9373;DHT22;10838;52.350;9.790;2023-06-19T12:06:33;31.80;86.10
9373;DHT22;10838;52.350;9.790;2023-06-19T12:09:00;31.80;86.20
9373;DHT22;10838;52.350;9.790;2023-06-19T12:11:28;31.70;86.20
9373;DHT22;10838;52.350;9.790;2023-06-19T12:13:55;31.70;86.20
9373;DHT22;10838;52.350;9.790;2023-06-19T12:16:23;31.60;86.30
9373;DHT22;10838;52.350;9.790;2023-06-19T12:18:50;31.60;86.40
9373;DHT22;10838;52.350;9.790;2023-06-19T12:21:17;31.60;86.30
9373;DHT22;10838;52.350;9.790;2023-06-19T12:23:43;31.60;86.30
9373;DHT22;10838;52.350;9.790;2023-06-19T12:26:10;31.50;86.50
9373;DHT22;10838;52.350;9.790;2023-06-19T12:28:36;31.50;86.70
9373;DHT22;10838;52.350;9.790;2023-06-19T12:31:04;31.60;86.50
9373;DHT22;10838;52.350;9.790;2023-06-19T12:33:31;31.60;86.50
9373;DHT22;10838;52.350;9.790;2023-06-19T12:35:59;31.50;86.40
9373;DHT22;10838;52.350;9.790;2023-06-19T12:38:26;31.50;86.40
9373;DHT22;10838;52.350;9.790;2023-06-19T12:40:53;31.50;86.40
9373;DHT22;10838;52.350;9.790;2023-06-19T12:43:19;31.50;86.40
9373;DHT22;10838;52.350;9.790;2023-06-19T12:45:46;31.50;86.30
9373;DHT22;10838;52.350;9.790;2023-06-19T12:48:14;31.50;86.20
9373;DHT22;10838;52.350;9.790;2023-06-19T12:50:42;31.40;86.20
9373;DHT22;10838;52.350;9.790;2023-06-19T12:53:09;31.40;86.30
9373;DHT22;10838;52.350;9.790;2023-06-19T12:55:37;31.40;86.20
9373;DHT22;10838;52.350;9.790;2023-06-19T12:58:03;31.40;86.10
9373;DHT22;10838;52.350;9.790;2023-06-19T13:00:30;31.40;86.20
9373;DHT22;10838;52.350;9.790;2023-06-19T13:02:56;31.40;86.10
9373;DHT22;10838;52.350;9.790;2023-06-19T13:05:24;31.40;86.20
9373;DHT22;10838;52.350;9.790;2023-06-19T13:07:51;31.40;86.20
9373;DHT22;10838;52.350;9.790;2023-06-19T13:10:18;31.30;86.30
9373;DHT22;10838;52.350;9.790;2023-06-19T13:12:44;31.30;86.40
9373;DHT22;10838;52.350;9.790;2023-06-19T13:15:11;31.20;86.40
9373;DHT22;10838;52.350;9.790;2023-06-19T13:17:37;31.20;86.50
9373;DHT22;10838;52.350;9.790;2023-06-19T13:20:05;31.30;86.40
9373;DHT22;10838;52.350;9.790;2023-06-19T13:22:33;31.30;86.40
9373;DHT22;10838;52.350;9.790;2023-06-19T13:25:00;31.30;86.20
9373;DHT22;10838;52.350;9.790;2023-06-19T13:27:27;31.30;86.10
9373;DHT22;10838;52.350;9.790;2023-06-19T13:29:54;31.30;86.10
9373;DHT22;10838;52.350;9.790;2023-06-19T13:32:21;31.30;86.00
9373;DHT22;10838;52.350;9.790;2023-06-19T13:34:48;31.30;85.90
9373;DHT22;10838;52.350;9.790;2023-06-19T13:37:14;31.20;85.90
9373;DHT22;10838;52.350;9.790;2023-06-19T13:39:42;31.20;85.90
9373;DHT22;10838;52.350;9.790;2023-06-19T13:42:09;31.10;86.00
9373;DHT22;10838;52.350;9.790;2023-06-19T13:44:36;31.10;86.00
9373;DHT22;10838;52.350;9.790;2023-06-19T13:47:03;31.00;85.90
9373;DHT22;10838;52.350;9.790;2023-06-19T13:49:30;31.00;85.90
9373;DHT22;10838;52.350;9.790;2023-06-19T13:51:56;31.00;86.00
9373;DHT22;10838;52.350;9.790;2023-06-19T13:54:23;31.00;86.00
9373;DHT22;10838;52.350;9.790;2023-06-19T13:56:51;30.90;86.00
9373;DHT22;10838;52.350;9.790;2023-06-19T13:59:18;30.90;86.10
9373;DHT22;10838;52.350;9.790;2023-06-19T14:01:44;31.00;86.00
9373;DHT22;10838;52.350;9.790;2023-06-19T14:04:11;31.00;85.80
9373;DHT22;10838;52.350;9.790;2023-06-19T14:06:38;31.00;85.70
9373;DHT22;10838;52.350;9.790;2023-06-19T14:09:04;31.00;85.90
9373;DHT22;10838;52.350;9.790;2023-06-19T14:11:31;31.00;86.00
9373;DHT22;10838;52.350;9.790;2023-06-19T14:13:59;31.00;85.90
9373;DHT22;10838;52.350;9.790;2023-06-19T14:16:26;31.00;85.80
9373;DHT22;10838;52.350;9.790;2023-06-19T14:18:52;30.90;85.80
9373;DHT22;10838;52.350;9.790;2023-06-19T14:21:19;30.90;85.90
9373;DHT22;10838;52.350;9.790;2023-06-19T14:23:47;30.80;85.80
9373;DHT22;10838;52.350;9.790;2023-06-19T14:26:13;30.80;85.80
9373;DHT22;10838;52.350;9.790;2023-06-19T14:28:40;30.70;85.70
9373;DHT22;10838;52.350;9.790;2023-06-19T14:31:08;30.70;85.90
9373;DHT22;10838;52.350;9.790;2023-06-19T14:33:34;30.60;85.70
9373;DHT22;10838;52.350;9.790;2023-06-19T14:36:02;30.70;85.80
9373;DHT22;10838;52.350;9.790;2023-06-19T14:38:29;30.60;85.70
9373;DHT22;10838;52.350;9.790;2023-06-19T14:40:59;30.50;85.80
9373;DHT22;10838;52.350;9.790;2023-06-19T14:43:26;30.50;85.80
9373;DHT22;10838;52.350;9.790;2023-06-19T14:45:53;30.50;85.90
9373;DHT22;10838;52.350;9.790;2023-06-19T14:48:21;30.40;85.90
9373;DHT22;10838;52.350;9.790;2023-06-19T14:50:48;30.40;86.00
9373;DHT22;10838;52.350;9.790;2023-06-19T14:53:14;30.40;86.10
9373;DHT22;10838;52.350;9.790;2023-06-19T14:55:41;30.30;86.00
9373;DHT22;10838;52.350;9.790;2023-06-19T14:58:11;30.30;86.00
9373;DHT22;10838;52.350;9.790;2023-06-19T15:00:38;30.30;86.20
9373;DHT22;10838;52.350;9.790;2023-06-19T15:03:05;30.20;86.10
9373;DHT22;10838;52.350;9.790;2023-06-19T15:05:33;30.20;86.30
9373;DHT22;10838;52.350;9.790;2023-06-19T15:08:00;30.30;86.30
9373;DHT22;10838;52.350;9.790;2023-06-19T15:10:28;30.20;86.30
9373;DHT22;10838;52.350;9.790;2023-06-19T15:12:54;30.30;86.40
9373;DHT22;10838;52.350;9.790;2023-06-19T15:15:21;30.20;86.30
9373;DHT22;10838;52.350;9.790;2023-06-19T15:17:48;30.30;86.30
9373;DHT22;10838;52.350;9.790;2023-06-19T15:20:14;30.30;86.30
9373;DHT22;10838;52.350;9.790;2023-06-19T15:22:44;30.40;86.20
9373;DHT22;10838;52.350;9.790;2023-06-19T15:25:11;30.30;86.20
9373;DHT22;10838;52.350;9.790;2023-06-19T15:27:38;30.40;86.10
9373;DHT22;10838;52.350;9.790;2023-06-19T15:30:05;30.30;86.10
9373;DHT22;10838;52.350;9.790;2023-06-19T15:32:32;30.30;86.20
9373;DHT22;10838;52.350;9.790;2023-06-19T15:34:59;30.30;86.20
9373;DHT22;10838;52.350;9.790;2023-06-19T15:37:26;30.20;86.20
9373;DHT22;10838;52.350;9.790;2023-06-19T15:39:54;30.20;86.20
9373;DHT22;10838;52.350;9.790;2023-06-19T15:42:21;30.20;86.20
9373;DHT22;10838;52.350;9.790;2023-06-19T15:44:47;30.20;86.10